createdAt,value
2018-05-14T00:00:12.116Z,99738.12
2018-05-14T00:02:39.579Z,99733.12
2018-05-14T00:05:07.034Z,99735.63
2018-05-14T00:07:34.528Z,99735.16
2018-05-14T00:10:01.972Z,99734.77
2018-05-14T00:12:29.470Z,99736.83
2018-05-14T00:14:57.000Z,99737.81
2018-05-14T00:17:24.444Z,99732.91
2018-05-14T00:19:51.886Z,99738.44
2018-05-14T00:22:19.340Z,99733.91
2018-05-14T00:24:46.818Z,99735.09
2018-05-14T00:27:14.313Z,99739.88
2018-05-14T00:29:41.784Z,99740.90
2018-05-14T00:32:14.290Z,99735.53
2018-05-14T00:34:41.786Z,99744.11
2018-05-14T00:37:09.239Z,99743.38
2018-05-14T00:39:36.766Z,99742.98
2018-05-14T00:42:04.194Z,99736.84
2018-05-14T00:44:31.650Z,99744.41
2018-05-14T00:46:59.076Z,99742.40
2018-05-14T00:49:26.572Z,99743.13
2018-05-14T00:51:53.974Z,99738.27
2018-05-14T00:54:22.195Z,99740.09
2018-05-14T00:56:51.061Z,99742.20
2018-05-14T00:59:18.709Z,99747.06
2018-05-14T01:01:46.168Z,99748.33
2018-05-14T01:04:13.600Z,99742.02
2018-05-14T01:06:41.073Z,99749.20
2018-05-14T01:09:08.763Z,99747.80
2018-05-14T01:11:36.501Z,99751.34
2018-05-14T01:14:04.169Z,99748.84
2018-05-14T01:16:31.614Z,99741.69
2018-05-14T01:18:59.053Z,99747.18
2018-05-14T01:21:27.220Z,99741.73
2018-05-14T01:23:54.687Z,99747.13
2018-05-14T01:26:22.587Z,99746.39
2018-05-14T01:28:50.986Z,99745.75
2018-05-14T01:31:42.123Z,99745.66
2018-05-14T01:34:09.572Z,99747.27
2018-05-14T01:36:37.213Z,99747.25
2018-05-14T01:39:04.699Z,99745.62
2018-05-14T01:41:32.381Z,99744.12
2018-05-14T01:43:59.855Z,99754.16
2018-05-14T01:46:27.291Z,99749.03
2018-05-14T01:48:54.752Z,99741.47
2018-05-14T01:51:22.232Z,99751.10
2018-05-14T01:53:49.746Z,99748.87
2018-05-14T01:56:17.175Z,99741.36
2018-05-14T01:58:45.480Z,99746.42
2018-05-14T02:01:12.976Z,99740.72
2018-05-14T02:03:40.643Z,99750.34
2018-05-14T02:06:08.095Z,99746.84
2018-05-14T02:08:35.607Z,99745.54
2018-05-14T02:11:03.124Z,99747.03
2018-05-14T02:13:30.567Z,99748.87
2018-05-14T02:15:58.027Z,99740.73
2018-05-14T02:18:26.195Z,99745.55
2018-05-14T02:23:46.717Z,99745.63
2018-05-14T02:26:14.171Z,99747.39
2018-05-14T02:28:41.637Z,99747.75
2018-05-14T02:31:10.455Z,99746.75
2018-05-14T02:33:37.987Z,99750.37
2018-05-14T02:36:05.445Z,99743.77
2018-05-14T02:38:32.892Z,99751.72
2018-05-14T02:41:00.374Z,99750.59
2018-05-14T02:43:27.807Z,99748.92
2018-05-14T02:45:55.267Z,99755.34
2018-05-14T02:48:22.836Z,99763.05
2018-05-14T02:50:50.394Z,99749.75
2018-05-14T02:53:17.822Z,99758.94
2018-05-14T02:55:45.280Z,99755.56
2018-05-14T02:58:12.775Z,99759.75
2018-05-14T03:00:40.237Z,99754.81
2018-05-14T03:03:07.711Z,99756.13
2018-05-14T03:05:35.839Z,99747.52
2018-05-14T03:08:03.277Z,99747.33
2018-05-14T03:10:31.130Z,99751.78
2018-05-14T03:12:58.507Z,99752.91
2018-05-14T03:15:25.986Z,99755.05
2018-05-14T03:17:53.451Z,99757.45
2018-05-14T03:20:20.906Z,99760.91
2018-05-14T03:22:48.372Z,99758.36
2018-05-14T03:25:15.867Z,99762.75
2018-05-14T03:27:43.356Z,99765.56
2018-05-14T03:30:10.831Z,99768.50
2018-05-14T03:32:38.286Z,99767.15
2018-05-14T03:35:05.750Z,99767.48
2018-05-14T03:37:33.226Z,99764.98
2018-05-14T03:40:00.753Z,99768.57
2018-05-14T03:42:28.303Z,99770.74
2018-05-14T03:44:55.799Z,99771.20
2018-05-14T03:47:23.235Z,99768.44
2018-05-14T03:49:50.715Z,99770.33
2018-05-14T03:52:18.867Z,99773.09
2018-05-14T03:54:46.625Z,99775.49
2018-05-14T03:57:14.100Z,99778.43
2018-05-14T04:00:04.291Z,99775.07
2018-05-14T04:02:43.718Z,99778.11
2018-05-14T04:05:18.860Z,99780.45
2018-05-14T04:07:46.313Z,99779.33
2018-05-14T04:10:13.778Z,99781.92
2018-05-14T04:12:41.249Z,99775.56
2018-05-14T04:15:08.691Z,99790.02
2018-05-14T04:17:36.199Z,99788.97
2018-05-14T04:20:03.648Z,99795.30
2018-05-14T04:22:31.293Z,99793.59
2018-05-14T04:24:58.855Z,99795.83
2018-05-14T04:27:26.297Z,99790.75
2018-05-14T04:29:53.835Z,99787.64
2018-05-14T04:32:21.314Z,99794.02
2018-05-14T04:34:48.852Z,99796.75
2018-05-14T04:37:16.294Z,99800.22
2018-05-14T04:39:43.748Z,99800.91
2018-05-14T04:42:11.211Z,99804.25
2018-05-14T04:44:38.671Z,99811.78
2018-05-14T04:47:06.431Z,99801.48
2018-05-14T04:49:33.863Z,99806.98
2018-05-14T04:52:01.342Z,99809.97
2018-05-14T04:54:28.808Z,99817.37
2018-05-14T04:56:56.275Z,99805.67
2018-05-14T04:59:23.751Z,99813.39
2018-05-14T05:01:56.189Z,99814.44
2018-05-14T05:04:23.665Z,99816.63
2018-05-14T05:06:52.024Z,99802.23
2018-05-14T05:09:19.711Z,99802.47
2018-05-14T05:11:47.172Z,99802.70
2018-05-14T05:14:14.649Z,99806.73
2018-05-14T05:16:42.116Z,99803.11
2018-05-14T05:19:09.572Z,99803.44
2018-05-14T05:21:37.237Z,99806.59
2018-05-14T05:24:04.693Z,99805.02
2018-05-14T05:26:32.165Z,99813.27
2018-05-14T05:28:59.669Z,99806.33
2018-05-14T05:31:27.449Z,99803.31
2018-05-14T05:33:54.931Z,99805.78
2018-05-14T05:36:22.378Z,99809.07
2018-05-14T05:38:49.861Z,99812.09
2018-05-14T05:41:17.364Z,99812.56
2018-05-14T05:43:44.822Z,99809.89
2018-05-14T05:46:12.277Z,99813.68
2018-05-14T05:48:39.747Z,99817.22
2018-05-14T05:51:09.781Z,99823.05
2018-05-14T05:53:37.253Z,99817.84
2018-05-14T05:56:04.689Z,99820.45
2018-05-14T05:58:32.150Z,99820.70
2018-05-14T06:00:59.633Z,99827.81
2018-05-14T06:03:27.203Z,99820.36
2018-05-14T06:05:54.653Z,99821.22
2018-05-14T06:08:22.163Z,99821.09
2018-05-14T06:10:49.615Z,99817.36
2018-05-14T06:13:17.061Z,99812.66
2018-05-14T06:15:44.515Z,99817.11
2018-05-14T06:18:11.969Z,99817.09
2018-05-14T06:20:39.425Z,99823.84
2018-05-14T06:23:06.883Z,99818.63
2018-05-14T06:25:34.347Z,99816.29
2018-05-14T06:28:01.788Z,99821.61
2018-05-14T06:30:29.271Z,99817.66
2018-05-14T06:32:56.806Z,99819.38
2018-05-14T06:35:24.161Z,99822.69
2018-05-14T06:37:51.629Z,99827.33
2018-05-14T06:40:19.085Z,99829.17
2018-05-14T06:42:46.590Z,99822.80
2018-05-14T06:45:13.981Z,99828.53
2018-05-14T06:47:41.480Z,99827.99
2018-05-14T06:50:08.921Z,99831.05
2018-05-14T06:52:36.399Z,99834.41
2018-05-14T06:55:04.767Z,99829.32
2018-05-14T06:57:34.876Z,99838.16
2018-05-14T07:00:03.047Z,99840.19
2018-05-14T07:02:30.511Z,99843.04
2018-05-14T07:04:58.003Z,99842.30
2018-05-14T07:07:25.527Z,99843.98
2018-05-14T07:09:53.077Z,99842.13
2018-05-14T07:12:20.542Z,99841.98
2018-05-14T07:14:48.041Z,99837.40
2018-05-14T07:17:15.584Z,99842.47
2018-05-14T07:19:43.047Z,99846.23
2018-05-14T07:22:10.477Z,99845.55
2018-05-14T07:24:37.919Z,99852.63
2018-05-14T07:27:05.537Z,99853.25
2018-05-14T07:29:33.215Z,99862.31
2018-05-14T07:32:14.931Z,99864.06
2018-05-14T07:34:42.414Z,99861.58
2018-05-14T07:37:10.201Z,99857.78
2018-05-14T07:39:37.433Z,99861.50
2018-05-14T07:42:04.899Z,99863.00
2018-05-14T07:44:32.421Z,99858.21
2018-05-14T07:46:59.970Z,99866.14
2018-05-14T07:49:27.385Z,99860.40
2018-05-14T07:51:54.875Z,99866.24
2018-05-14T07:54:22.568Z,99864.74
2018-05-14T07:56:50.030Z,99871.05
2018-05-14T07:59:17.482Z,99865.09
2018-05-14T08:01:44.937Z,99870.63
2018-05-14T08:04:12.408Z,99869.09
2018-05-14T08:06:39.895Z,99870.54
2018-05-14T08:09:07.320Z,99868.52
2018-05-14T08:11:34.795Z,99873.84
2018-05-14T08:14:02.333Z,99876.82
2018-05-14T08:16:29.834Z,99868.58
2018-05-14T08:18:57.300Z,99869.26
2018-05-14T08:21:24.749Z,99868.12
2018-05-14T08:23:52.194Z,99865.97
2018-05-14T08:26:19.697Z,99864.52
2018-05-14T08:28:47.591Z,99867.27
2018-05-14T08:31:15.049Z,99869.70
2018-05-14T08:33:42.499Z,99866.80
2018-05-14T08:36:09.960Z,99868.92
2018-05-14T08:38:37.420Z,99871.84
2018-05-14T08:41:05.713Z,99869.56
2018-05-14T08:43:33.239Z,99871.31
2018-05-14T08:46:01.059Z,99868.32
2018-05-14T08:48:28.501Z,99879.23
2018-05-14T08:50:55.955Z,99886.11
2018-05-14T08:53:23.412Z,99871.95
2018-05-14T08:55:50.849Z,99865.89
2018-05-14T08:58:18.335Z,99871.78
2018-05-14T09:00:47.628Z,99873.84
2018-05-14T09:03:15.140Z,99860.02
2018-05-14T09:05:42.582Z,99863.62
2018-05-14T09:08:10.078Z,99866.23
2018-05-14T09:10:37.608Z,99859.67
2018-05-14T09:13:05.070Z,99869.45
2018-05-14T09:15:32.583Z,99861.97
2018-05-14T09:18:00.859Z,99858.05
2018-05-14T09:20:28.931Z,99862.41
2018-05-14T09:22:56.401Z,99858.58
2018-05-14T09:25:23.877Z,99860.77
2018-05-14T09:27:51.374Z,99864.39
2018-05-14T09:30:18.769Z,99866.61
2018-05-14T09:32:46.214Z,99868.65
2018-05-14T09:35:13.648Z,99864.22
2018-05-14T09:37:41.098Z,99868.86
2018-05-14T09:40:09.191Z,99870.82
2018-05-14T09:42:37.503Z,99877.63
2018-05-14T09:45:05.013Z,99867.56
2018-05-14T09:47:32.670Z,99875.38
2018-05-14T09:49:59.980Z,99870.77
2018-05-14T09:52:27.467Z,99865.76
2018-05-14T09:54:54.963Z,99870.86
2018-05-14T09:57:22.522Z,99877.53
2018-05-14T09:59:49.904Z,99874.67
2018-05-14T10:02:17.388Z,99872.93
2018-05-14T10:04:45.204Z,99873.14
2018-05-14T10:07:12.776Z,99871.39
2018-05-14T10:09:40.507Z,99870.22
2018-05-14T10:12:08.166Z,99887.52
2018-05-14T10:14:35.672Z,99877.63
2018-05-14T10:17:03.178Z,99875.70
2018-05-14T10:19:30.636Z,99877.69
2018-05-14T10:21:58.161Z,99881.39
2018-05-14T10:24:26.251Z,99876.75
2018-05-14T10:26:53.784Z,99876.95
2018-05-14T10:29:21.284Z,99880.48
2018-05-14T10:31:49.560Z,99876.19
2018-05-14T10:34:17.062Z,99887.52
2018-05-14T10:36:45.534Z,99881.90
2018-05-14T10:39:13.149Z,99886.16
2018-05-14T10:41:40.688Z,99892.77
2018-05-14T10:44:08.208Z,99888.11
2018-05-14T10:46:35.710Z,99878.80
2018-05-14T10:49:03.185Z,99886.77
2018-05-14T10:51:30.616Z,99888.52
2018-05-14T10:53:58.110Z,99880.16
2018-05-14T10:56:25.700Z,99883.28
2018-05-14T10:58:53.190Z,99874.52
2018-05-14T11:01:20.715Z,99884.03
2018-05-14T11:03:48.255Z,99896.09
2018-05-14T11:06:15.732Z,99891.04
2018-05-14T11:08:43.517Z,99887.52
2018-05-14T11:11:20.670Z,99890.44
2018-05-14T11:13:48.186Z,99888.28
2018-05-14T11:16:15.727Z,99883.38
2018-05-14T11:18:43.267Z,99878.11
2018-05-14T11:21:10.781Z,99879.00
2018-05-14T11:23:38.249Z,99884.39
2018-05-14T11:26:05.710Z,99877.30
2018-05-14T11:28:33.166Z,99875.52
2018-05-14T11:31:00.626Z,99876.65
2018-05-14T11:33:28.081Z,99877.50
2018-05-14T11:35:55.547Z,99880.36
2018-05-14T11:38:23.280Z,99894.33
2018-05-14T11:40:51.587Z,99887.48
2018-05-14T11:43:19.039Z,99893.87
2018-05-14T11:45:47.004Z,99887.70
2018-05-14T11:48:14.510Z,99896.62
2018-05-14T11:50:42.119Z,99889.72
2018-05-14T11:53:09.608Z,99877.61
2018-05-14T11:55:37.947Z,99883.88
2018-05-14T11:58:06.340Z,99884.52
2018-05-14T12:00:33.834Z,99882.16
2018-05-14T12:03:01.391Z,99870.64
2018-05-14T12:05:29.132Z,99883.39
2018-05-14T12:07:56.575Z,99880.52
2018-05-14T12:10:24.147Z,99881.58
2018-05-14T12:12:51.616Z,99880.08
2018-05-14T12:15:19.164Z,99876.98
2018-05-14T12:17:46.883Z,99888.55
2018-05-14T12:20:14.497Z,99878.77
2018-05-14T12:22:42.019Z,99886.78
2018-05-14T12:25:09.525Z,99881.31
2018-05-14T12:27:37.128Z,99874.70
2018-05-14T12:30:04.643Z,99873.60
2018-05-14T12:32:32.097Z,99877.63
2018-05-14T12:34:59.557Z,99867.80
2018-05-14T12:37:27.300Z,99865.90
2018-05-14T12:39:54.675Z,99864.02
2018-05-14T12:42:22.989Z,99873.06
2018-05-14T12:44:50.487Z,99870.27
2018-05-14T12:47:17.951Z,99870.58
2018-05-14T12:49:45.658Z,99877.41
2018-05-14T12:52:14.494Z,99872.50
2018-05-14T12:54:42.041Z,99862.88
2018-05-14T12:57:09.552Z,99879.09
2018-05-14T12:59:36.950Z,99874.59
2018-05-14T13:02:04.467Z,99873.45
2018-05-14T13:07:10.300Z,99858.84
2018-05-14T13:09:49.167Z,99868.58
2018-05-14T13:12:16.715Z,99868.64
2018-05-14T13:14:44.273Z,99862.94
2018-05-14T13:17:11.826Z,99870.75
2018-05-14T13:19:40.168Z,99867.06
2018-05-14T13:22:12.573Z,99869.27
2018-05-14T13:24:42.939Z,99873.22
2018-05-14T13:32:30.715Z,99855.02
2018-05-14T13:40:07.853Z,99869.59
2018-05-14T13:42:35.369Z,99857.09
2018-05-14T13:45:02.932Z,99866.20
2018-05-14T13:47:31.308Z,99861.77
2018-05-14T13:49:58.823Z,99856.14
2018-05-14T13:52:26.323Z,99867.02
2018-05-14T13:54:53.753Z,99858.59
2018-05-14T13:57:22.845Z,99860.18
2018-05-14T13:59:50.335Z,99852.19
2018-05-14T14:02:17.831Z,99869.47
2018-05-14T14:04:45.367Z,99860.83
2018-05-14T14:07:14.278Z,99864.16
2018-05-14T14:09:42.153Z,99871.45
2018-05-14T14:12:23.902Z,99870.21
2018-05-14T14:14:51.430Z,99866.73
2018-05-14T14:17:19.015Z,99869.59
2018-05-14T14:19:46.459Z,99871.88
2018-05-14T14:25:06.704Z,99863.92
2018-05-14T14:27:34.261Z,99862.53
2018-05-14T14:30:01.735Z,99858.24
2018-05-14T14:32:29.188Z,99853.85
2018-05-14T14:34:56.644Z,99857.67
2018-05-14T14:37:24.128Z,99854.42
2018-05-14T14:39:51.661Z,99858.73
2018-05-14T14:42:19.443Z,99857.89
2018-05-14T14:44:47.435Z,99865.13
2018-05-14T14:47:15.056Z,99858.53
2018-05-14T14:49:44.685Z,99862.45
2018-05-14T14:52:12.583Z,99858.08
2018-05-14T14:54:40.253Z,99866.06
2018-05-14T14:57:07.835Z,99859.62
2018-05-14T14:59:35.382Z,99858.91
2018-05-14T15:02:03.021Z,99859.47
2018-05-14T15:04:30.508Z,99861.98
2018-05-14T15:06:58.390Z,99874.55
2018-05-14T15:09:25.852Z,99870.14
2018-05-14T15:11:53.383Z,99871.39
2018-05-14T15:14:20.847Z,99872.45
2018-05-14T15:16:48.497Z,99868.19
2018-05-14T15:19:16.095Z,99871.52
2018-05-14T15:21:48.890Z,99866.27
2018-05-14T15:24:17.429Z,99862.23
2018-05-14T15:26:46.621Z,99865.75
2018-05-14T15:29:14.222Z,99858.58
2018-05-14T15:31:41.680Z,99867.91
2018-05-14T15:34:09.176Z,99858.38
2018-05-14T15:36:36.629Z,99871.02
2018-05-14T15:39:04.153Z,99871.39
2018-05-14T15:41:31.652Z,99862.27
2018-05-14T15:43:59.136Z,99857.98
2018-05-14T15:46:26.619Z,99867.32
2018-05-14T15:48:54.863Z,99870.23
2018-05-14T15:51:22.400Z,99878.00
2018-05-14T15:53:49.887Z,99873.94
2018-05-14T15:56:22.109Z,99872.17
2018-05-14T15:58:49.738Z,99878.02
2018-05-14T16:01:17.254Z,99883.85
2018-05-14T16:03:44.813Z,99882.67
2018-05-14T16:06:12.383Z,99881.90
2018-05-14T16:08:40.778Z,99883.23
2018-05-14T16:11:08.311Z,99883.23
2018-05-14T16:13:36.117Z,99872.34
2018-05-14T16:16:04.060Z,99876.78
2018-05-14T16:18:32.406Z,99874.42
2018-05-14T16:20:59.886Z,99873.06
2018-05-14T16:23:27.706Z,99875.98
2018-05-14T16:25:55.127Z,99871.34
2018-05-14T16:28:23.090Z,99869.36
2018-05-14T16:30:50.856Z,99883.36
2018-05-14T16:33:18.786Z,99885.30
2018-05-14T16:35:46.476Z,99878.91
2018-05-14T16:38:14.148Z,99877.70
2018-05-14T16:40:41.591Z,99895.98
2018-05-14T16:43:09.037Z,99884.13
2018-05-14T16:45:37.030Z,99876.33
2018-05-14T16:48:04.957Z,99880.20
2018-05-14T16:50:32.423Z,99883.88
2018-05-14T16:52:59.986Z,99887.19
2018-05-14T16:55:27.447Z,99885.45
2018-05-14T16:57:54.918Z,99886.58
2018-05-14T17:00:22.437Z,99890.08
2018-05-14T17:02:50.183Z,99887.93
2018-05-14T17:05:17.683Z,99888.12
2018-05-14T17:07:45.425Z,99894.91
2018-05-14T17:10:13.887Z,99888.88
2018-05-14T17:15:34.790Z,99898.38
2018-05-14T17:18:02.281Z,99895.06
2018-05-14T17:20:29.763Z,99898.91
2018-05-14T17:22:57.298Z,99902.94
2018-05-14T17:25:25.160Z,99900.00
2018-05-14T17:27:52.933Z,99901.55
2018-05-14T17:30:20.484Z,99904.88
2018-05-14T17:32:57.568Z,99918.23
2018-05-14T17:35:25.062Z,99917.24
2018-05-14T17:37:52.491Z,99919.17
2018-05-14T17:40:20.213Z,99926.56
2018-05-14T17:42:47.667Z,99925.17
2018-05-14T17:45:15.205Z,99930.20
2018-05-14T17:47:42.862Z,99927.47
2018-05-14T17:50:10.333Z,99925.30
2018-05-14T17:52:43.183Z,99934.22
2018-05-14T17:55:10.774Z,99937.46
2018-05-14T17:57:38.282Z,99940.92
2018-05-14T18:00:05.915Z,99941.31
2018-05-14T18:02:33.457Z,99940.52
2018-05-14T18:05:00.998Z,99936.98
2018-05-14T18:07:28.454Z,99946.85
2018-05-14T18:09:55.925Z,99946.66
2018-05-14T18:15:15.914Z,99946.88
2018-05-14T18:17:43.423Z,99952.91
2018-05-14T18:20:16.596Z,99953.70
2018-05-14T18:22:44.156Z,99957.02
2018-05-14T18:25:17.330Z,99960.31
2018-05-14T18:27:50.269Z,99960.34
2018-05-14T18:30:23.187Z,99971.19
2018-05-14T18:35:44.436Z,99978.10
2018-05-14T18:38:11.956Z,99979.38
2018-05-14T18:40:39.420Z,99981.62
2018-05-14T18:43:06.902Z,99983.75
2018-05-14T18:45:34.425Z,99988.72
2018-05-14T18:48:01.927Z,99985.70
2018-05-14T18:50:29.387Z,99988.44
2018-05-14T18:52:56.872Z,99987.80
2018-05-14T18:55:24.367Z,99992.61
2018-05-14T18:57:51.847Z,99995.89
2018-05-14T19:00:19.344Z,100012.56
2018-05-14T19:02:46.793Z,100006.12
2018-05-14T19:05:14.258Z,100016.80
2018-05-14T19:07:42.603Z,100022.27
2018-05-14T19:10:15.680Z,100024.75
2018-05-14T19:12:43.545Z,100027.02
2018-05-14T19:15:16.760Z,100026.38
2018-05-14T19:17:49.846Z,100031.99
2018-05-14T19:20:17.309Z,100036.59
2018-05-14T19:22:50.486Z,100037.23
2018-05-14T19:25:17.944Z,100044.49
2018-05-14T19:27:51.000Z,100049.76
2018-05-14T19:30:18.462Z,100046.67
2018-05-14T19:32:50.912Z,100047.00
2018-05-14T19:35:23.886Z,100054.12
2018-05-14T19:37:51.389Z,100050.13
2018-05-14T19:40:24.366Z,100051.11
2018-05-14T19:42:51.954Z,100051.88
2018-05-14T19:45:19.472Z,100054.28
2018-05-14T19:47:46.975Z,100055.79
2018-05-14T19:50:14.565Z,100051.30
2018-05-14T19:52:41.944Z,100068.09
2018-05-14T19:55:09.479Z,100059.12
2018-05-14T19:57:37.046Z,100058.52
2018-05-14T20:00:04.581Z,100056.70
2018-05-14T20:02:32.062Z,100051.83
2018-05-14T20:04:59.553Z,100049.95
2018-05-14T20:07:27.078Z,100056.18
2018-05-14T20:09:54.610Z,100051.35
2018-05-14T20:12:22.124Z,100063.91
2018-05-14T20:14:49.572Z,100060.11
2018-05-14T20:17:17.870Z,100062.05
2018-05-14T20:19:45.376Z,100060.60
2018-05-14T20:22:13.562Z,100062.62
2018-05-14T20:24:41.110Z,100064.98
2018-05-14T20:27:08.597Z,100059.02
2018-05-14T20:29:36.140Z,100063.38
2018-05-14T20:32:03.674Z,100067.12
2018-05-14T20:34:31.144Z,100064.70
2018-05-14T20:36:58.633Z,100073.77
2018-05-14T20:39:26.342Z,100077.29
2018-05-14T20:41:53.874Z,100078.59
2018-05-14T20:44:21.515Z,100077.06
2018-05-14T20:46:48.976Z,100083.28
2018-05-14T20:49:16.495Z,100082.40
2018-05-14T20:51:48.900Z,100080.80
2018-05-14T20:54:16.376Z,100083.17
2018-05-14T20:56:43.841Z,100085.88
2018-05-14T20:59:11.392Z,100087.99
2018-05-14T21:01:38.852Z,100089.08
2018-05-14T21:04:06.346Z,100089.06
2018-05-14T21:06:33.791Z,100089.65
2018-05-14T21:09:01.285Z,100095.34
2018-05-14T21:11:38.538Z,100091.61
2018-05-14T21:14:05.992Z,100089.87
2018-05-14T21:16:33.511Z,100093.11
2018-05-14T21:19:00.984Z,100093.89
2018-05-14T21:21:28.427Z,100090.62
2018-05-14T21:23:55.891Z,100094.76
2018-05-14T21:26:23.397Z,100096.21
2018-05-14T21:28:50.999Z,100093.14
2018-05-14T21:31:42.165Z,100096.06
2018-05-14T21:34:09.623Z,100106.69
2018-05-14T21:36:38.031Z,100102.50
2018-05-14T21:39:05.479Z,100110.88
2018-05-14T21:41:32.937Z,100111.97
2018-05-14T21:44:01.655Z,100109.99
2018-05-14T21:46:29.609Z,100107.89
2018-05-14T21:48:57.941Z,100106.95
2018-05-14T21:51:39.783Z,100103.61
2018-05-14T21:54:07.250Z,100107.62
2018-05-14T21:56:34.726Z,100110.98
2018-05-14T21:59:02.178Z,100107.73
2018-05-14T22:01:29.670Z,100111.52
2018-05-14T22:03:57.124Z,100119.69
2018-05-14T22:06:24.604Z,100126.39
2018-05-14T22:08:52.434Z,100123.72
2018-05-14T22:11:19.922Z,100126.55
2018-05-14T22:13:48.874Z,100123.45
2018-05-14T22:16:16.609Z,100129.23
2018-05-14T22:18:46.935Z,100125.69
2018-05-14T22:21:15.444Z,100118.36
2018-05-14T22:26:15.829Z,100115.54
2018-05-14T22:28:43.732Z,100113.15
2018-05-14T22:31:12.850Z,100115.50
2018-05-14T22:33:41.201Z,100109.13
2018-05-14T22:36:08.850Z,100119.45
2018-05-14T22:38:38.577Z,100111.53
2018-05-14T22:41:06.235Z,100110.70
2018-05-14T22:43:33.757Z,100117.88
2018-05-14T22:46:01.265Z,100110.70
2018-05-14T22:48:28.805Z,100116.05
2018-05-14T22:50:56.467Z,100117.89
2018-05-14T22:53:24.139Z,100117.39
2018-05-14T22:55:51.649Z,100122.43
2018-05-14T22:58:19.221Z,100122.25
2018-05-14T23:00:46.770Z,100123.35
2018-05-14T23:03:14.295Z,100113.91
2018-05-14T23:05:41.817Z,100121.38
2018-05-14T23:08:09.279Z,100121.36
2018-05-14T23:10:36.845Z,100123.20
2018-05-14T23:13:04.365Z,100124.96
2018-05-14T23:15:31.899Z,100124.56
2018-05-14T23:17:59.443Z,100128.41
2018-05-14T23:20:26.981Z,100129.63
2018-05-14T23:22:54.495Z,100130.23
2018-05-14T23:25:22.037Z,100133.97
2018-05-14T23:27:49.491Z,100135.08
2018-05-14T23:30:17.057Z,100135.30
2018-05-14T23:32:44.555Z,100130.03
2018-05-14T23:35:12.082Z,100125.98
2018-05-14T23:37:39.613Z,100122.23
2018-05-14T23:40:07.043Z,100131.81
2018-05-14T23:42:34.823Z,100135.08
2018-05-14T23:45:02.470Z,100131.15
2018-05-14T23:47:29.994Z,100125.65
2018-05-14T23:49:57.498Z,100127.95
2018-05-14T23:52:25.151Z,100130.19
2018-05-14T23:54:52.808Z,100126.93
2018-05-14T23:57:20.291Z,100128.86
2018-05-14T23:59:47.763Z,100133.08
